createdAt,value
2022-08-03T00:10:13.832Z,1016.02
2022-08-03T00:38:44.905Z,1015.99
2022-08-03T01:07:15.257Z,1015.91
2022-08-03T01:36:01.236Z,1015.66
2022-08-03T02:04:46.103Z,1015.58
2022-08-03T02:33:23.955Z,1015.56
2022-08-03T03:02:06.194Z,1015.51
2022-08-03T03:30:54.063Z,1015.5
2022-08-03T03:59:22.602Z,1015.67
2022-08-03T04:28:30.212Z,1015.71
2022-08-03T04:56:30.099Z,1015.96
2022-08-03T05:25:27.782Z,1016.1
2022-08-03T05:53:42.953Z,1016.11
2022-08-03T06:22:21.540Z,1016.17
2022-08-03T06:50:52.059Z,1016.1
2022-08-03T07:20:09.111Z,1016.18
2022-08-03T07:48:28.706Z,1016.09
2022-08-03T08:16:45.595Z,1016
2022-08-03T08:45:10.463Z,1016.03
2022-08-03T09:13:53.333Z,1015.91
2022-08-03T09:42:26.795Z,1015.78
2022-08-03T10:10:56.236Z,1015.59
2022-08-03T10:39:39.177Z,1015.32
2022-08-03T11:08:12.277Z,1014.95
2022-08-03T11:36:46.161Z,1014.74
2022-08-03T12:05:12.638Z,1014.57
2022-08-03T12:33:41.663Z,1014.4
2022-08-03T13:02:10.748Z,1014.13
2022-08-03T13:30:31.452Z,1013.96
2022-08-03T13:59:04.972Z,1013.72
2022-08-03T14:27:31.106Z,1013.62
2022-08-03T14:56:01.923Z,1013.41
2022-08-03T15:24:29.157Z,1012.96
2022-08-03T15:53:00.162Z,1012.72
2022-08-03T16:21:50.845Z,1012.49
2022-08-03T16:50:20.549Z,1012.39
2022-08-03T17:18:28.598Z,1012.36
2022-08-03T17:47:00.383Z,1012.32
2022-08-03T18:15:22.755Z,1012.51
2022-08-03T18:44:06.493Z,1012.6
2022-08-03T19:12:26.429Z,1012.72
2022-08-03T19:40:28.018Z,1012.97
2022-08-03T20:08:52.802Z,1013.01
2022-08-03T20:37:12.714Z,1012.91
2022-08-03T21:05:48.100Z,1012.86
2022-08-03T21:33:52.243Z,1012.65
2022-08-03T22:02:25.282Z,1012.61
2022-08-03T22:30:36.277Z,1012.79
2022-08-03T22:59:39.415Z,1012.98
2022-08-03T23:30:44.491Z,1013.02
2022-08-03T23:58:32.089Z,1012.93
